Pagrindinis puslapis
METAR-TAF:

METAR-TAF

Oro uostai :

Normanton, Australija

platuma: 17-41-06S, ilguma: 141-04-12E, Aukštis: 22 m

Dabartinis oras

Ataskaita buvo paskelbta 1 valandą ir 9 minutes, ne 19:00 UTC
Vėjas 5 kt iš Šiaurės Rytų
Temperatūra 19°C
Drėgmė 68%
Slėgis 1015 hPa
Matomumas 10 km arba daugiau

METAR: YNTN 201900Z AUTO 05005KT 9999 // NCD 19/13 Q1015

Laikas: 06:09 (20:09 UTC)


TAF: trūkstamas

Orai ataskaitas ir orų prognozės (METAR, TAF).

turimą stotys yra geltonos ir raudonos taškus žemėlapyje.

Perkelti pele per norėdami pamatyti stoties vardą.

Tada spustelėkite, norėdami matyti oro stebėjimo ir prognozės.

Norėdami pakeisti žemėlapį: spustelėkite ant žalios mygtukų su juodo kryžiaus žemyn,; žalią mygtuką su brūkšneliu, jei norite nutolinti; arba žalių rodyklių gretimoms žemėlapius.


METAR-TAF: